sensor_id;sensor_type;location;lat;lon;timestamp;P1;durP1;ratioP1;P2;durP2;ratioP2
7545;SDS011;3814;51.454;12.616;2023-02-01T00:01:59;11.57;;;3.50;;
7545;SDS011;3814;51.454;12.616;2023-02-01T00:04:25;9.90;;;2.95;;
7545;SDS011;3814;51.454;12.616;2023-02-01T00:06:51;13.10;;;3.10;;
7545;SDS011;3814;51.454;12.616;2023-02-01T00:09:16;12.38;;;3.22;;
7545;SDS011;3814;51.454;12.616;2023-02-01T00:11:41;9.25;;;2.95;;
7545;SDS011;3814;51.454;12.616;2023-02-01T00:14:07;10.07;;;3.10;;
7545;SDS011;3814;51.454;12.616;2023-02-01T00:16:33;11.55;;;3.00;;
7545;SDS011;3814;51.454;12.616;2023-02-01T00:19:03;12.48;;;2.72;;
7545;SDS011;3814;51.454;12.616;2023-02-01T00:21:30;6.93;;;2.65;;
7545;SDS011;3814;51.454;12.616;2023-02-01T00:23:56;16.45;;;2.95;;
7545;SDS011;3814;51.454;12.616;2023-02-01T00:26:26;10.98;;;2.70;;
7545;SDS011;3814;51.454;12.616;2023-02-01T00:29:09;11.07;;;2.80;;
7545;SDS011;3814;51.454;12.616;2023-02-01T00:31:37;9.65;;;2.80;;
7545;SDS011;3814;51.454;12.616;2023-02-01T00:34:02;8.25;;;2.90;;
7545;SDS011;3814;51.454;12.616;2023-02-01T00:36:28;8.82;;;2.60;;
7545;SDS011;3814;51.454;12.616;2023-02-01T00:38:54;8.65;;;2.78;;
7545;SDS011;3814;51.454;12.616;2023-02-01T00:41:19;8.82;;;2.60;;
7545;SDS011;3814;51.454;12.616;2023-02-01T00:43:45;6.55;;;2.50;;
7545;SDS011;3814;51.454;12.616;2023-02-01T00:46:11;8.80;;;2.97;;
7545;SDS011;3814;51.454;12.616;2023-02-01T00:48:37;6.68;;;2.53;;
7545;SDS011;3814;51.454;12.616;2023-02-01T00:51:04;9.32;;;2.58;;
7545;SDS011;3814;51.454;12.616;2023-02-01T00:53:34;9.15;;;2.47;;
7545;SDS011;3814;51.454;12.616;2023-02-01T00:55:59;12.02;;;2.45;;
7545;SDS011;3814;51.454;12.616;2023-02-01T00:58:25;10.77;;;2.38;;
7545;SDS011;3814;51.454;12.616;2023-02-01T01:01:10;6.05;;;2.13;;
7545;SDS011;3814;51.454;12.616;2023-02-01T01:03:37;7.90;;;1.92;;
7545;SDS011;3814;51.454;12.616;2023-02-01T01:06:05;6.72;;;2.10;;
7545;SDS011;3814;51.454;12.616;2023-02-01T01:08:32;7.95;;;2.10;;
7545;SDS011;3814;51.454;12.616;2023-02-01T01:10:57;10.90;;;2.25;;
7545;SDS011;3814;51.454;12.616;2023-02-01T01:13:23;6.65;;;1.70;;
7545;SDS011;3814;51.454;12.616;2023-02-01T01:15:48;11.73;;;1.88;;
7545;SDS011;3814;51.454;12.616;2023-02-01T01:18:14;9.43;;;1.77;;
7545;SDS011;3814;51.454;12.616;2023-02-01T01:20:39;11.93;;;2.03;;
7545;SDS011;3814;51.454;12.616;2023-02-01T01:23:06;12.27;;;2.13;;
7545;SDS011;3814;51.454;12.616;2023-02-01T01:25:32;8.00;;;1.73;;
7545;SDS011;3814;51.454;12.616;2023-02-01T01:27:57;10.07;;;1.65;;
7545;SDS011;3814;51.454;12.616;2023-02-01T01:30:23;7.78;;;2.45;;
7545;SDS011;3814;51.454;12.616;2023-02-01T01:32:48;8.68;;;1.98;;
7545;SDS011;3814;51.454;12.616;2023-02-01T01:35:13;9.82;;;1.88;;
7545;SDS011;3814;51.454;12.616;2023-02-01T01:37:39;9.85;;;2.08;;
7545;SDS011;3814;51.454;12.616;2023-02-01T01:40:04;6.70;;;1.80;;
7545;SDS011;3814;51.454;12.616;2023-02-01T01:42:30;5.82;;;1.50;;
7545;SDS011;3814;51.454;12.616;2023-02-01T01:45:03;9.77;;;1.90;;
7545;SDS011;3814;51.454;12.616;2023-02-01T01:47:43;8.68;;;1.60;;
7545;SDS011;3814;51.454;12.616;2023-02-01T01:50:10;9.93;;;2.10;;
7545;SDS011;3814;51.454;12.616;2023-02-01T01:52:42;6.75;;;2.05;;
7545;SDS011;3814;51.454;12.616;2023-02-01T01:55:11;9.93;;;1.88;;
7545;SDS011;3814;51.454;12.616;2023-02-01T01:57:39;11.70;;;2.13;;
7545;SDS011;3814;51.454;12.616;2023-02-01T02:00:11;6.28;;;1.83;;
7545;SDS011;3814;51.454;12.616;2023-02-01T02:02:38;9.32;;;1.90;;
7545;SDS011;3814;51.454;12.616;2023-02-01T02:05:04;9.00;;;2.00;;
7545;SDS011;3814;51.454;12.616;2023-02-01T02:07:32;9.65;;;2.10;;
7545;SDS011;3814;51.454;12.616;2023-02-01T02:10:00;5.10;;;1.60;;
7545;SDS011;3814;51.454;12.616;2023-02-01T02:12:30;6.40;;;1.95;;
7545;SDS011;3814;51.454;12.616;2023-02-01T02:14:55;7.15;;;1.60;;
7545;SDS011;3814;51.454;12.616;2023-02-01T02:17:43;9.73;;;2.05;;
7545;SDS011;3814;51.454;12.616;2023-02-01T02:20:22;9.25;;;2.60;;
7545;SDS011;3814;51.454;12.616;2023-02-01T02:23:12;8.65;;;2.22;;
7545;SDS011;3814;51.454;12.616;2023-02-01T02:28:28;8.88;;;2.25;;
7545;SDS011;3814;51.454;12.616;2023-02-01T02:36:26;9.25;;;2.50;;
7545;SDS011;3814;51.454;12.616;2023-02-01T02:39:16;7.60;;;2.30;;
7545;SDS011;3814;51.454;12.616;2023-02-01T02:41:50;14.30;;;2.75;;
7545;SDS011;3814;51.454;12.616;2023-02-01T02:47:29;8.50;;;2.22;;
7545;SDS011;3814;51.454;12.616;2023-02-01T02:50:35;11.15;;;2.38;;
7545;SDS011;3814;51.454;12.616;2023-02-01T02:53:23;9.70;;;2.75;;
7545;SDS011;3814;51.454;12.616;2023-02-01T02:56:11;7.30;;;2.17;;
7545;SDS011;3814;51.454;12.616;2023-02-01T02:58:55;9.45;;;3.03;;
7545;SDS011;3814;51.454;12.616;2023-02-01T03:01:40;13.70;;;2.47;;
7545;SDS011;3814;51.454;12.616;2023-02-01T03:04:24;11.82;;;2.60;;
7545;SDS011;3814;51.454;12.616;2023-02-01T03:06:51;8.65;;;2.55;;
7545;SDS011;3814;51.454;12.616;2023-02-01T03:09:19;10.57;;;2.72;;
7545;SDS011;3814;51.454;12.616;2023-02-01T03:11:47;12.32;;;2.63;;
7545;SDS011;3814;51.454;12.616;2023-02-01T03:14:32;11.60;;;2.50;;
7545;SDS011;3814;51.454;12.616;2023-02-01T03:17:01;15.00;;;2.72;;
7545;SDS011;3814;51.454;12.616;2023-02-01T03:19:40;12.13;;;2.90;;
7545;SDS011;3814;51.454;12.616;2023-02-01T03:22:14;7.70;;;2.50;;
7545;SDS011;3814;51.454;12.616;2023-02-01T03:24:51;10.57;;;3.10;;
7545;SDS011;3814;51.454;12.616;2023-02-01T03:27:20;11.02;;;2.58;;
7545;SDS011;3814;51.454;12.616;2023-02-01T03:34:53;8.20;;;2.47;;
7545;SDS011;3814;51.454;12.616;2023-02-01T03:37:23;8.38;;;2.50;;
7545;SDS011;3814;51.454;12.616;2023-02-01T03:39:53;11.10;;;2.45;;
7545;SDS011;3814;51.454;12.616;2023-02-01T03:42:38;9.48;;;2.38;;
7545;SDS011;3814;51.454;12.616;2023-02-01T03:47:48;9.27;;;2.63;;
7545;SDS011;3814;51.454;12.616;2023-02-01T03:50:21;10.70;;;2.60;;
7545;SDS011;3814;51.454;12.616;2023-02-01T03:52:54;9.45;;;2.45;;
7545;SDS011;3814;51.454;12.616;2023-02-01T03:55:23;8.13;;;2.38;;
7545;SDS011;3814;51.454;12.616;2023-02-01T03:57:57;10.50;;;2.50;;
7545;SDS011;3814;51.454;12.616;2023-02-01T04:00:28;6.45;;;2.30;;
7545;SDS011;3814;51.454;12.616;2023-02-01T04:02:53;11.73;;;2.50;;
7545;SDS011;3814;51.454;12.616;2023-02-01T04:05:19;10.07;;;2.88;;
7545;SDS011;3814;51.454;12.616;2023-02-01T04:07:44;9.48;;;2.67;;
7545;SDS011;3814;51.454;12.616;2023-02-01T04:10:10;9.70;;;2.70;;
7545;SDS011;3814;51.454;12.616;2023-02-01T04:12:36;11.23;;;2.35;;
7545;SDS011;3814;51.454;12.616;2023-02-01T04:15:02;9.05;;;2.22;;
7545;SDS011;3814;51.454;12.616;2023-02-01T04:17:28;10.30;;;2.60;;
7545;SDS011;3814;51.454;12.616;2023-02-01T04:19:53;7.80;;;2.53;;
7545;SDS011;3814;51.454;12.616;2023-02-01T04:22:18;10.50;;;2.35;;
7545;SDS011;3814;51.454;12.616;2023-02-01T04:24:44;9.23;;;2.50;;
7545;SDS011;3814;51.454;12.616;2023-02-01T04:27:09;12.65;;;2.70;;
7545;SDS011;3814;51.454;12.616;2023-02-01T04:29:34;7.35;;;2.80;;
7545;SDS011;3814;51.454;12.616;2023-02-01T04:32:00;10.05;;;2.72;;
7545;SDS011;3814;51.454;12.616;2023-02-01T04:34:25;14.00;;;2.83;;
7545;SDS011;3814;51.454;12.616;2023-02-01T04:36:51;14.10;;;2.80;;
7545;SDS011;3814;51.454;12.616;2023-02-01T04:39:16;12.63;;;2.75;;
7545;SDS011;3814;51.454;12.616;2023-02-01T04:41:41;14.93;;;2.65;;
7545;SDS011;3814;51.454;12.616;2023-02-01T04:44:08;10.23;;;2.10;;
7545;SDS011;3814;51.454;12.616;2023-02-01T04:46:38;9.65;;;2.45;;
7545;SDS011;3814;51.454;12.616;2023-02-01T04:49:03;13.02;;;2.70;;
7545;SDS011;3814;51.454;12.616;2023-02-01T04:51:29;14.02;;;2.95;;
7545;SDS011;3814;51.454;12.616;2023-02-01T04:53:55;10.95;;;2.20;;
7545;SDS011;3814;51.454;12.616;2023-02-01T04:56:20;14.23;;;2.53;;
7545;SDS011;3814;51.454;12.616;2023-02-01T04:58:46;16.60;;;2.65;;
7545;SDS011;3814;51.454;12.616;2023-02-01T05:01:11;7.03;;;2.10;;
7545;SDS011;3814;51.454;12.616;2023-02-01T05:03:36;10.27;;;2.60;;
7545;SDS011;3814;51.454;12.616;2023-02-01T05:06:01;6.55;;;2.38;;
7545;SDS011;3814;51.454;12.616;2023-02-01T05:08:28;10.13;;;2.45;;
7545;SDS011;3814;51.454;12.616;2023-02-01T05:10:54;9.65;;;2.72;;
7545;SDS011;3814;51.454;12.616;2023-02-01T05:13:19;9.10;;;2.70;;
7545;SDS011;3814;51.454;12.616;2023-02-01T05:16:03;10.32;;;2.55;;
7545;SDS011;3814;51.454;12.616;2023-02-01T05:18:29;7.93;;;2.30;;
7545;SDS011;3814;51.454;12.616;2023-02-01T05:20:54;12.82;;;2.60;;
7545;SDS011;3814;51.454;12.616;2023-02-01T05:23:20;14.70;;;2.63;;
7545;SDS011;3814;51.454;12.616;2023-02-01T05:25:45;9.27;;;2.83;;
7545;SDS011;3814;51.454;12.616;2023-02-01T05:28:10;7.40;;;2.00;;
7545;SDS011;3814;51.454;12.616;2023-02-01T05:30:35;11.20;;;2.60;;
7545;SDS011;3814;51.454;12.616;2023-02-01T05:33:01;9.82;;;2.42;;
7545;SDS011;3814;51.454;12.616;2023-02-01T05:35:27;11.85;;;2.38;;
7545;SDS011;3814;51.454;12.616;2023-02-01T05:37:52;10.63;;;2.60;;
7545;SDS011;3814;51.454;12.616;2023-02-01T05:40:18;13.23;;;2.67;;
7545;SDS011;3814;51.454;12.616;2023-02-01T05:42:43;10.20;;;2.63;;
7545;SDS011;3814;51.454;12.616;2023-02-01T05:45:09;12.05;;;2.78;;
7545;SDS011;3814;51.454;12.616;2023-02-01T05:47:34;9.80;;;2.40;;
7545;SDS011;3814;51.454;12.616;2023-02-01T05:49:59;9.00;;;2.28;;
7545;SDS011;3814;51.454;12.616;2023-02-01T05:52:25;9.95;;;2.47;;
7545;SDS011;3814;51.454;12.616;2023-02-01T05:54:50;9.07;;;2.05;;
7545;SDS011;3814;51.454;12.616;2023-02-01T05:57:15;11.02;;;2.40;;
7545;SDS011;3814;51.454;12.616;2023-02-01T05:59:41;13.60;;;2.63;;
7545;SDS011;3814;51.454;12.616;2023-02-01T06:02:07;15.15;;;2.85;;
7545;SDS011;3814;51.454;12.616;2023-02-01T06:04:33;14.15;;;2.67;;
7545;SDS011;3814;51.454;12.616;2023-02-01T06:06:58;13.02;;;2.65;;
7545;SDS011;3814;51.454;12.616;2023-02-01T06:09:24;11.90;;;2.55;;
7545;SDS011;3814;51.454;12.616;2023-02-01T06:11:49;9.02;;;2.40;;
7545;SDS011;3814;51.454;12.616;2023-02-01T06:14:14;6.53;;;2.58;;
7545;SDS011;3814;51.454;12.616;2023-02-01T06:16:39;12.73;;;2.80;;
7545;SDS011;3814;51.454;12.616;2023-02-01T06:19:05;10.45;;;2.60;;
7545;SDS011;3814;51.454;12.616;2023-02-01T06:21:30;11.02;;;2.72;;
7545;SDS011;3814;51.454;12.616;2023-02-01T06:23:55;12.05;;;2.92;;
7545;SDS011;3814;51.454;12.616;2023-02-01T06:26:22;14.20;;;2.78;;
7545;SDS011;3814;51.454;12.616;2023-02-01T06:28:48;16.30;;;2.97;;
7545;SDS011;3814;51.454;12.616;2023-02-01T06:31:13;6.75;;;2.42;;
7545;SDS011;3814;51.454;12.616;2023-02-01T06:33:38;9.68;;;2.88;;
7545;SDS011;3814;51.454;12.616;2023-02-01T06:36:05;9.23;;;2.60;;
7545;SDS011;3814;51.454;12.616;2023-02-01T06:38:31;12.00;;;2.70;;
7545;SDS011;3814;51.454;12.616;2023-02-01T06:40:59;10.52;;;2.72;;
7545;SDS011;3814;51.454;12.616;2023-02-01T06:43:25;7.25;;;2.78;;
7545;SDS011;3814;51.454;12.616;2023-02-01T06:45:51;10.30;;;2.60;;
7545;SDS011;3814;51.454;12.616;2023-02-01T06:48:17;9.75;;;2.53;;
7545;SDS011;3814;51.454;12.616;2023-02-01T06:50:42;7.90;;;2.40;;
7545;SDS011;3814;51.454;12.616;2023-02-01T06:53:08;12.90;;;2.40;;
7545;SDS011;3814;51.454;12.616;2023-02-01T06:55:33;11.73;;;2.28;;
7545;SDS011;3814;51.454;12.616;2023-02-01T06:57:58;9.45;;;2.10;;
7545;SDS011;3814;51.454;12.616;2023-02-01T07:00:24;9.05;;;2.67;;
7545;SDS011;3814;51.454;12.616;2023-02-01T07:02:50;10.13;;;2.30;;
7545;SDS011;3814;51.454;12.616;2023-02-01T07:05:15;11.77;;;2.30;;
7545;SDS011;3814;51.454;12.616;2023-02-01T07:07:40;8.20;;;2.28;;
7545;SDS011;3814;51.454;12.616;2023-02-01T07:10:06;8.73;;;2.22;;
7545;SDS011;3814;51.454;12.616;2023-02-01T07:12:31;10.23;;;2.33;;
7545;SDS011;3814;51.454;12.616;2023-02-01T07:14:57;12.38;;;2.75;;
7545;SDS011;3814;51.454;12.616;2023-02-01T07:17:22;7.47;;;2.58;;
7545;SDS011;3814;51.454;12.616;2023-02-01T07:19:48;10.60;;;2.38;;
7545;SDS011;3814;51.454;12.616;2023-02-01T07:22:15;10.98;;;2.47;;
7545;SDS011;3814;51.454;12.616;2023-02-01T07:24:41;12.45;;;2.45;;
7545;SDS011;3814;51.454;12.616;2023-02-01T07:27:06;10.80;;;2.60;;
7545;SDS011;3814;51.454;12.616;2023-02-01T07:29:32;10.43;;;2.42;;
7545;SDS011;3814;51.454;12.616;2023-02-01T07:31:57;5.65;;;2.40;;
7545;SDS011;3814;51.454;12.616;2023-02-01T07:34:23;9.25;;;2.58;;
7545;SDS011;3814;51.454;12.616;2023-02-01T07:36:48;7.25;;;2.15;;
7545;SDS011;3814;51.454;12.616;2023-02-01T07:39:13;11.90;;;2.80;;
7545;SDS011;3814;51.454;12.616;2023-02-01T07:41:39;14.75;;;2.85;;
7545;SDS011;3814;51.454;12.616;2023-02-01T07:44:04;12.75;;;2.75;;
7545;SDS011;3814;51.454;12.616;2023-02-01T07:46:32;7.80;;;2.00;;
7545;SDS011;3814;51.454;12.616;2023-02-01T07:48:58;10.07;;;2.90;;
7545;SDS011;3814;51.454;12.616;2023-02-01T07:51:23;10.80;;;2.60;;
7545;SDS011;3814;51.454;12.616;2023-02-01T07:53:48;11.93;;;2.65;;
7545;SDS011;3814;51.454;12.616;2023-02-01T07:56:15;10.85;;;2.45;;
7545;SDS011;3814;51.454;12.616;2023-02-01T07:58:42;11.00;;;2.83;;
7545;SDS011;3814;51.454;12.616;2023-02-01T08:01:14;11.00;;;2.60;;
7545;SDS011;3814;51.454;12.616;2023-02-01T08:03:52;11.23;;;2.40;;
7545;SDS011;3814;51.454;12.616;2023-02-01T08:06:57;7.97;;;2.53;;
7545;SDS011;3814;51.454;12.616;2023-02-01T08:09:22;9.48;;;2.58;;
7545;SDS011;3814;51.454;12.616;2023-02-01T08:11:48;9.25;;;3.00;;
7545;SDS011;3814;51.454;12.616;2023-02-01T08:14:13;7.35;;;2.70;;
7545;SDS011;3814;51.454;12.616;2023-02-01T08:16:38;8.05;;;2.88;;
7545;SDS011;3814;51.454;12.616;2023-02-01T08:19:04;8.60;;;2.58;;
7545;SDS011;3814;51.454;12.616;2023-02-01T08:21:29;7.78;;;2.50;;
7545;SDS011;3814;51.454;12.616;2023-02-01T08:24:02;9.05;;;2.65;;
7545;SDS011;3814;51.454;12.616;2023-02-01T08:26:28;6.20;;;2.65;;
7545;SDS011;3814;51.454;12.616;2023-02-01T08:28:55;9.30;;;2.75;;
7545;SDS011;3814;51.454;12.616;2023-02-01T08:31:22;10.30;;;2.80;;
7545;SDS011;3814;51.454;12.616;2023-02-01T08:33:51;9.32;;;2.55;;
7545;SDS011;3814;51.454;12.616;2023-02-01T08:36:27;14.32;;;2.80;;
7545;SDS011;3814;51.454;12.616;2023-02-01T08:38:56;9.40;;;3.08;;
7545;SDS011;3814;51.454;12.616;2023-02-01T08:41:23;9.98;;;3.10;;
7545;SDS011;3814;51.454;12.616;2023-02-01T08:43:49;12.32;;;2.70;;
7545;SDS011;3814;51.454;12.616;2023-02-01T08:46:14;11.38;;;2.42;;
7545;SDS011;3814;51.454;12.616;2023-02-01T08:48:40;10.50;;;3.00;;
7545;SDS011;3814;51.454;12.616;2023-02-01T08:51:07;7.97;;;2.92;;
7545;SDS011;3814;51.454;12.616;2023-02-01T08:53:35;10.65;;;3.05;;
7545;SDS011;3814;51.454;12.616;2023-02-01T08:56:01;6.60;;;2.45;;
7545;SDS011;3814;51.454;12.616;2023-02-01T08:58:26;8.13;;;2.38;;
7545;SDS011;3814;51.454;12.616;2023-02-01T09:00:52;6.32;;;2.30;;
7545;SDS011;3814;51.454;12.616;2023-02-01T09:03:17;6.65;;;2.53;;
7545;SDS011;3814;51.454;12.616;2023-02-01T09:05:42;8.73;;;2.30;;
7545;SDS011;3814;51.454;12.616;2023-02-01T09:08:08;4.90;;;2.17;;
7545;SDS011;3814;51.454;12.616;2023-02-01T09:10:33;10.82;;;2.53;;
7545;SDS011;3814;51.454;12.616;2023-02-01T09:12:59;6.10;;;2.28;;
7545;SDS011;3814;51.454;12.616;2023-02-01T09:15:25;7.88;;;2.75;;
7545;SDS011;3814;51.454;12.616;2023-02-01T09:17:50;6.18;;;2.35;;
7545;SDS011;3814;51.454;12.616;2023-02-01T09:20:15;10.50;;;2.75;;
7545;SDS011;3814;51.454;12.616;2023-02-01T09:22:41;10.35;;;2.80;;
7545;SDS011;3814;51.454;12.616;2023-02-01T09:25:06;9.35;;;2.88;;
7545;SDS011;3814;51.454;12.616;2023-02-01T09:27:32;7.68;;;2.65;;
7545;SDS011;3814;51.454;12.616;2023-02-01T09:29:57;13.15;;;3.38;;
7545;SDS011;3814;51.454;12.616;2023-02-01T09:32:23;9.65;;;3.40;;
7545;SDS011;3814;51.454;12.616;2023-02-01T09:34:49;10.30;;;3.00;;
7545;SDS011;3814;51.454;12.616;2023-02-01T09:37:15;10.60;;;3.22;;
7545;SDS011;3814;51.454;12.616;2023-02-01T09:39:40;13.27;;;3.72;;
7545;SDS011;3814;51.454;12.616;2023-02-01T09:42:33;10.43;;;3.33;;
7545;SDS011;3814;51.454;12.616;2023-02-01T09:45:39;8.45;;;2.90;;
7545;SDS011;3814;51.454;12.616;2023-02-01T09:48:43;9.63;;;3.55;;
7545;SDS011;3814;51.454;12.616;2023-02-01T09:51:45;9.57;;;3.40;;
7545;SDS011;3814;51.454;12.616;2023-02-01T09:54:18;10.75;;;3.22;;
7545;SDS011;3814;51.454;12.616;2023-02-01T09:56:49;10.75;;;3.40;;
7545;SDS011;3814;51.454;12.616;2023-02-01T09:59:44;8.75;;;3.55;;
7545;SDS011;3814;51.454;12.616;2023-02-01T10:02:16;10.70;;;3.50;;
7545;SDS011;3814;51.454;12.616;2023-02-01T10:04:43;18.20;;;4.20;;
7545;SDS011;3814;51.454;12.616;2023-02-01T10:09:51;10.75;;;4.78;;
7545;SDS011;3814;51.454;12.616;2023-02-01T10:20:47;5.88;;;2.90;;
7545;SDS011;3814;51.454;12.616;2023-02-01T10:23:27;9.20;;;2.65;;
7545;SDS011;3814;51.454;12.616;2023-02-01T10:26:22;6.40;;;2.63;;
7545;SDS011;3814;51.454;12.616;2023-02-01T10:28:52;7.82;;;2.28;;
7545;SDS011;3814;51.454;12.616;2023-02-01T10:31:21;8.07;;;2.90;;
7545;SDS011;3814;51.454;12.616;2023-02-01T10:33:52;8.63;;;2.40;;
7545;SDS011;3814;51.454;12.616;2023-02-01T10:36:22;7.65;;;2.47;;
7545;SDS011;3814;51.454;12.616;2023-02-01T10:38:52;7.10;;;3.00;;
7545;SDS011;3814;51.454;12.616;2023-02-01T10:41:19;9.32;;;2.70;;
7545;SDS011;3814;51.454;12.616;2023-02-01T10:43:48;10.18;;;2.70;;
7545;SDS011;3814;51.454;12.616;2023-02-01T10:46:17;9.20;;;2.67;;
7545;SDS011;3814;51.454;12.616;2023-02-01T10:48:42;7.55;;;2.25;;
7545;SDS011;3814;51.454;12.616;2023-02-01T10:51:12;9.00;;;2.55;;
7545;SDS011;3814;51.454;12.616;2023-02-01T10:53:50;10.30;;;2.22;;
7545;SDS011;3814;51.454;12.616;2023-02-01T10:56:23;6.47;;;1.95;;
7545;SDS011;3814;51.454;12.616;2023-02-01T10:58:50;10.45;;;2.38;;
7545;SDS011;3814;51.454;12.616;2023-02-01T11:01:37;13.48;;;2.90;;
7545;SDS011;3814;51.454;12.616;2023-02-01T11:04:14;13.27;;;3.30;;
7545;SDS011;3814;51.454;12.616;2023-02-01T11:07:03;8.95;;;2.88;;
7545;SDS011;3814;51.454;12.616;2023-02-01T11:09:32;11.75;;;2.75;;
7545;SDS011;3814;51.454;12.616;2023-02-01T11:12:00;11.10;;;2.97;;
7545;SDS011;3814;51.454;12.616;2023-02-01T11:14:27;11.77;;;3.25;;
7545;SDS011;3814;51.454;12.616;2023-02-01T11:16:58;11.65;;;3.10;;
7545;SDS011;3814;51.454;12.616;2023-02-01T11:19:25;6.93;;;2.70;;
7545;SDS011;3814;51.454;12.616;2023-02-01T11:21:51;9.63;;;2.10;;
7545;SDS011;3814;51.454;12.616;2023-02-01T11:24:20;8.57;;;2.42;;
7545;SDS011;3814;51.454;12.616;2023-02-01T11:26:49;6.63;;;2.08;;
7545;SDS011;3814;51.454;12.616;2023-02-01T11:29:16;10.15;;;2.25;;
7545;SDS011;3814;51.454;12.616;2023-02-01T11:31:48;8.35;;;1.88;;
7545;SDS011;3814;51.454;12.616;2023-02-01T11:34:14;10.45;;;1.80;;
7545;SDS011;3814;51.454;12.616;2023-02-01T11:36:42;11.13;;;2.28;;
7545;SDS011;3814;51.454;12.616;2023-02-01T11:41:59;8.02;;;2.10;;
7545;SDS011;3814;51.454;12.616;2023-02-01T11:44:37;8.20;;;2.20;;
7545;SDS011;3814;51.454;12.616;2023-02-01T11:47:17;10.45;;;2.95;;
7545;SDS011;3814;51.454;12.616;2023-02-01T11:49:47;8.05;;;2.00;;
7545;SDS011;3814;51.454;12.616;2023-02-01T12:01:20;11.32;;;3.78;;
7545;SDS011;3814;51.454;12.616;2023-02-01T12:03:59;8.48;;;2.63;;
7545;SDS011;3814;51.454;12.616;2023-02-01T12:06:40;9.98;;;2.65;;
7545;SDS011;3814;51.454;12.616;2023-02-01T12:09:23;6.13;;;2.30;;
7545;SDS011;3814;51.454;12.616;2023-02-01T12:12:01;15.05;;;2.38;;
7545;SDS011;3814;51.454;12.616;2023-02-01T12:26:01;7.78;;;2.45;;
7545;SDS011;3814;51.454;12.616;2023-02-01T12:28:34;9.98;;;2.60;;
7545;SDS011;3814;51.454;12.616;2023-02-01T12:31:23;10.35;;;3.05;;
7545;SDS011;3814;51.454;12.616;2023-02-01T12:34:01;7.90;;;2.45;;
7545;SDS011;3814;51.454;12.616;2023-02-01T12:36:57;12.63;;;2.92;;
7545;SDS011;3814;51.454;12.616;2023-02-01T12:39:40;11.48;;;2.80;;
7545;SDS011;3814;51.454;12.616;2023-02-01T12:42:15;8.23;;;2.63;;
7545;SDS011;3814;51.454;12.616;2023-02-01T12:44:57;7.53;;;2.50;;
7545;SDS011;3814;51.454;12.616;2023-02-01T12:47:39;9.77;;;2.90;;
7545;SDS011;3814;51.454;12.616;2023-02-01T12:52:51;8.38;;;2.75;;
7545;SDS011;3814;51.454;12.616;2023-02-01T12:55:20;7.25;;;2.50;;
7545;SDS011;3814;51.454;12.616;2023-02-01T12:57:50;7.60;;;2.70;;
7545;SDS011;3814;51.454;12.616;2023-02-01T13:00:32;10.05;;;2.50;;
7545;SDS011;3814;51.454;12.616;2023-02-01T13:03:05;9.68;;;2.83;;
7545;SDS011;3814;51.454;12.616;2023-02-01T13:08:25;7.32;;;2.60;;
7545;SDS011;3814;51.454;12.616;2023-02-01T13:11:07;10.38;;;2.92;;
7545;SDS011;3814;51.454;12.616;2023-02-01T13:16:35;5.82;;;2.47;;
7545;SDS011;3814;51.454;12.616;2023-02-01T13:21:58;9.90;;;2.67;;
7545;SDS011;3814;51.454;12.616;2023-02-01T13:24:38;10.10;;;2.25;;
7545;SDS011;3814;51.454;12.616;2023-02-01T13:27:08;9.98;;;2.10;;
7545;SDS011;3814;51.454;12.616;2023-02-01T13:29:36;8.00;;;2.20;;
7545;SDS011;3814;51.454;12.616;2023-02-01T13:32:10;9.90;;;1.98;;
7545;SDS011;3814;51.454;12.616;2023-02-01T13:35:19;8.57;;;2.53;;
7545;SDS011;3814;51.454;12.616;2023-02-01T13:40:47;11.95;;;2.83;;
7545;SDS011;3814;51.454;12.616;2023-02-01T13:43:23;9.07;;;2.40;;
7545;SDS011;3814;51.454;12.616;2023-02-01T13:45:53;7.15;;;1.70;;
7545;SDS011;3814;51.454;12.616;2023-02-01T13:48:34;9.00;;;2.33;;
7545;SDS011;3814;51.454;12.616;2023-02-01T13:51:03;8.68;;;2.10;;
7545;SDS011;3814;51.454;12.616;2023-02-01T13:53:32;9.85;;;2.60;;
7545;SDS011;3814;51.454;12.616;2023-02-01T13:58:37;11.68;;;2.50;;
7545;SDS011;3814;51.454;12.616;2023-02-01T14:03:51;8.55;;;2.40;;
7545;SDS011;3814;51.454;12.616;2023-02-01T14:11:34;11.32;;;2.13;;
7545;SDS011;3814;51.454;12.616;2023-02-01T14:19:08;11.52;;;2.00;;
7545;SDS011;3814;51.454;12.616;2023-02-01T14:21:55;8.68;;;2.17;;
7545;SDS011;3814;51.454;12.616;2023-02-01T14:24:29;6.28;;;1.55;;
7545;SDS011;3814;51.454;12.616;2023-02-01T14:27:17;5.35;;;1.75;;
7545;SDS011;3814;51.454;12.616;2023-02-01T14:29:50;5.30;;;1.98;;
7545;SDS011;3814;51.454;12.616;2023-02-01T14:32:23;7.18;;;1.98;;
7545;SDS011;3814;51.454;12.616;2023-02-01T14:42:24;8.38;;;2.50;;
7545;SDS011;3814;51.454;12.616;2023-02-01T14:44:51;8.48;;;2.80;;
7545;SDS011;3814;51.454;12.616;2023-02-01T14:49:52;7.30;;;2.63;;
7545;SDS011;3814;51.454;12.616;2023-02-01T14:52:22;6.65;;;2.65;;
7545;SDS011;3814;51.454;12.616;2023-02-01T14:55:00;7.80;;;2.60;;
7545;SDS011;3814;51.454;12.616;2023-02-01T14:57:30;7.18;;;2.75;;
7545;SDS011;3814;51.454;12.616;2023-02-01T15:00:03;8.63;;;2.67;;
7545;SDS011;3814;51.454;12.616;2023-02-01T15:02:33;4.72;;;2.50;;
7545;SDS011;3814;51.454;12.616;2023-02-01T15:05:00;10.10;;;2.80;;
7545;SDS011;3814;51.454;12.616;2023-02-01T15:07:25;11.50;;;2.88;;
7545;SDS011;3814;51.454;12.616;2023-02-01T15:09:52;10.27;;;2.85;;
7545;SDS011;3814;51.454;12.616;2023-02-01T15:12:22;10.95;;;2.85;;
7545;SDS011;3814;51.454;12.616;2023-02-01T15:17:58;9.60;;;2.95;;
7545;SDS011;3814;51.454;12.616;2023-02-01T15:20:28;10.20;;;2.70;;
7545;SDS011;3814;51.454;12.616;2023-02-01T15:22:58;5.05;;;2.47;;
7545;SDS011;3814;51.454;12.616;2023-02-01T15:25:29;9.45;;;2.53;;
7545;SDS011;3814;51.454;12.616;2023-02-01T15:27:56;7.13;;;2.53;;
7545;SDS011;3814;51.454;12.616;2023-02-01T15:30:26;7.45;;;2.42;;
7545;SDS011;3814;51.454;12.616;2023-02-01T15:33:04;10.57;;;3.28;;
7545;SDS011;3814;51.454;12.616;2023-02-01T15:43:24;5.53;;;2.88;;
7545;SDS011;3814;51.454;12.616;2023-02-01T15:45:51;8.20;;;2.83;;
7545;SDS011;3814;51.454;12.616;2023-02-01T15:48:20;11.18;;;2.88;;
7545;SDS011;3814;51.454;12.616;2023-02-01T15:50:48;11.27;;;2.70;;
7545;SDS011;3814;51.454;12.616;2023-02-01T15:53:15;8.23;;;2.55;;
7545;SDS011;3814;51.454;12.616;2023-02-01T15:55:43;7.65;;;2.60;;
7545;SDS011;3814;51.454;12.616;2023-02-01T15:58:17;9.23;;;3.13;;
7545;SDS011;3814;51.454;12.616;2023-02-01T16:00:49;7.28;;;2.70;;
7545;SDS011;3814;51.454;12.616;2023-02-01T16:06:09;6.13;;;3.13;;
7545;SDS011;3814;51.454;12.616;2023-02-01T16:08:35;3.85;;;1.60;;
7545;SDS011;3814;51.454;12.616;2023-02-01T16:13:33;1.60;;;0.60;;
7545;SDS011;3814;51.454;12.616;2023-02-01T16:15:58;1.40;;;0.82;;
7545;SDS011;3814;51.454;12.616;2023-02-01T16:18:24;0.95;;;0.60;;
7545;SDS011;3814;51.454;12.616;2023-02-01T16:20:49;0.65;;;0.40;;
7545;SDS011;3814;51.454;12.616;2023-02-01T16:23:14;0.60;;;0.40;;
7545;SDS011;3814;51.454;12.616;2023-02-01T16:25:40;1.80;;;0.60;;
7545;SDS011;3814;51.454;12.616;2023-02-01T16:28:05;0.95;;;0.32;;
7545;SDS011;3814;51.454;12.616;2023-02-01T16:30:31;1.45;;;0.60;;
7545;SDS011;3814;51.454;12.616;2023-02-01T16:32:57;0.60;;;0.32;;
7545;SDS011;3814;51.454;12.616;2023-02-01T16:35:27;1.55;;;0.65;;
7545;SDS011;3814;51.454;12.616;2023-02-01T16:37:56;2.75;;;1.33;;
7545;SDS011;3814;51.454;12.616;2023-02-01T16:40:21;3.15;;;1.33;;
7545;SDS011;3814;51.454;12.616;2023-02-01T16:42:47;2.58;;;1.30;;
7545;SDS011;3814;51.454;12.616;2023-02-01T16:45:15;1.75;;;1.00;;
7545;SDS011;3814;51.454;12.616;2023-02-01T16:47:41;5.72;;;2.00;;
7545;SDS011;3814;51.454;12.616;2023-02-01T16:50:20;2.33;;;1.08;;
7545;SDS011;3814;51.454;12.616;2023-02-01T16:52:46;1.63;;;1.05;;
7545;SDS011;3814;51.454;12.616;2023-02-01T16:55:16;2.08;;;0.93;;
7545;SDS011;3814;51.454;12.616;2023-02-01T16:57:42;1.15;;;0.65;;
7545;SDS011;3814;51.454;12.616;2023-02-01T17:00:08;2.28;;;1.10;;
7545;SDS011;3814;51.454;12.616;2023-02-01T17:02:34;2.65;;;0.90;;